Главная страница
METAR-TAF:

METAR-TAF

Аэропорты :

Олд-Кроу, Юкон, Канада

широта: 67-34N, долгота: 139-49W, высота над уровнем моря: 251 м

Текущие метеонаблюдения

Эта сводка был подготовлена 1 час и 16 минут назад, в 17:00 UTC
Штиль
Температура -3°C
Влажность 86%
Давление 1023 hPa
Видимость: 56.3 км
небольшая облачность на высоте 3000 фута

METAR: CYOC 201700Z 00000KT 35SM FEW030 M03/M05 A3020 RMK SC1 SC TR SLP247

Время: 11:16 (18:16 UTC)

Прогноз

Эта сводка был подготовлена 38 минут назад, в 17:38 UTC
Прогноз действительный с 20-го 18 UTC до 21-го 01 UTC
Ветер 3 Узел переменных направлений
Видимость: 10 км
небольшая облачность на высоте 3000 фута
небольшая облачность на высоте 8000 фута

TAF: CYOC 201738Z 2018/2101 VRB03KT P6SM FEW030 FEW080 RMK NXT FCST WILL BE ISSUED AT 211445Z

Метеонаблюдения и прогнозы для более 4000 аэропортов (сводки METAR и TAF).

Имеющиеся станции представлены на карте желтыми и красными точками.

Чтобы увидеть название станции, наведите на нее мышь.

Затем щелкните, чтобы увидеть метеонаблюдения и метеопрогнозы.

Управление картой: чтобы увеличить масштаб, щелкните зеленые кнопки с черным крестиком; чтобы уменьшить масштаб, щелкните зеленую кнопку с тире; для просмотра соседних карт щелкайте зеленые стрелки.


METAR-TAF: